Time;durP1;ratioP1;P1;durP2;ratioP2;P2;SDS_P1;SDS_P2;PMS_P1;PMS_P2;Temp;Humidity;BMP_temperature;BMP_pressure;BME280_temperature;BME280_humidity;BME280_pressure;Samples;Min_cycle;Max_cycle;Signal;HPM_P1;HPM_P2
2022/01/10 00:00:39;;;;;;;9.50;5.70;;;5.90;1.00;;;;;;5070313;28;20846;-63
2022/01/10 00:03:06;;;;;;;10.77;6.03;;;5.80;1.00;;;;;;5069857;28;20502;-62
2022/01/10 00:05:32;;;;;;;7.73;5.40;;;;;;;;;;5072038;28;20857;-63
2022/01/10 00:07:57;;;;;;;10.30;6.17;;;5.90;1.00;;;;;;5067700;28;20452;-62
2022/01/10 00:10:23;;;;;;;7.10;5.73;;;5.90;1.00;;;;;;5072902;28;20442;-61
2022/01/10 00:12:49;;;;;;;7.03;5.50;;;5.90;1.00;;;;;;5071219;28;20428;-62
2022/01/10 00:15:16;;;;;;;7.23;5.70;;;5.90;1.00;;;;;;5051765;28;20187;-61
2022/01/10 00:17:42;;;;;;;6.70;5.73;;;5.90;1.00;;;;;;5076102;28;20607;-62
2022/01/10 00:20:11;;;;;;;8.03;6.00;;;6.00;1.00;;;;;;5074632;28;20451;-62
2022/01/10 00:22:39;;;;;;;8.70;5.50;;;6.10;1.00;;;;;;5073114;28;20543;-62
2022/01/10 00:25:06;;;;;;;9.63;6.03;;;6.10;1.00;;;;;;5054885;28;20518;-61
2022/01/10 00:27:31;;;;;;;7.53;4.80;;;6.10;1.00;;;;;;5071447;28;20438;-61
2022/01/10 00:29:57;;;;;;;8.70;5.50;;;6.00;1.00;;;;;;5068948;28;20930;-60
2022/01/10 00:32:23;;;;;;;8.43;5.37;;;6.00;1.00;;;;;;5068760;28;20185;-62
2022/01/10 00:34:49;;;;;;;10.43;4.80;;;6.00;1.00;;;;;;5052167;28;20526;-62
2022/01/10 00:37:15;;;;;;;8.50;5.07;;;6.00;1.00;;;;;;5071803;28;20497;-63
2022/01/10 00:39:41;;;;;;;5.27;4.20;;;6.00;1.00;;;;;;5077020;28;20468;-62
2022/01/10 00:42:07;;;;;;;7.00;4.77;;;5.90;1.00;;;;;;5077951;28;20197;-62
2022/01/10 00:44:38;;;;;;;8.23;5.20;;;6.00;1.00;;;;;;5077828;28;20191;-63
2022/01/10 00:47:04;;;;;;;8.37;5.80;;;6.00;1.00;;;;;;5071084;28;20442;-62
2022/01/10 00:49:30;;;;;;;7.43;4.80;;;;;;;;;;5074144;28;20456;-62
2022/01/10 00:51:55;;;;;;;7.50;5.30;;;6.20;1.00;;;;;;5072843;28;20997;-61
2022/01/10 00:54:21;;;;;;;8.73;4.80;;;6.20;1.00;;;;;;5073771;28;20462;-61
2022/01/10 00:56:46;;;;;;;8.37;4.50;;;6.00;1.00;;;;;;5073360;28;20211;-61
2022/01/10 00:59:12;;;;;;;10.10;5.43;;;6.10;1.00;;;;;;5076749;28;20184;-62
2022/01/10 01:01:37;;;;;;;4.93;4.40;;;6.10;1.00;;;;;;5072358;28;20631;-60
2022/01/10 01:04:04;;;;;;;5.77;4.20;;;;;;;;;;5070801;28;20193;-61
2022/01/10 01:06:29;;;;;;;7.00;4.70;;;6.10;1.00;;;;;;5071918;28;20556;-62
2022/01/10 01:09:00;;;;;;;9.03;5.80;;;6.20;1.00;;;;;;5068369;28;20500;-62
2022/01/10 01:12:02;;;;;;;5.90;5.30;;;;;;;;;;5074901;28;20213;-62
2022/01/10 01:14:22;;;;;;;7.43;5.50;;;6.10;1.00;;;;;;5073488;28;20436;-61
2022/01/10 01:16:57;;;;;;;5.03;4.53;;;6.10;1.00;;;;;;5070744;28;21079;-62
2022/01/10 01:20:03;;;;;;;10.67;5.43;;;5.80;1.00;;;;;;5070728;28;20931;-60
2022/01/10 01:24:56;;;;;;;9.37;5.00;;;5.90;1.00;;;;;;5036262;28;20550;-60
2022/01/10 01:27:22;;;;;;;10.33;5.20;;;6.00;1.00;;;;;;5030835;28;20631;-60
2022/01/10 01:29:47;;;;;;;8.50;5.40;;;6.10;1.00;;;;;;5034017;28;20191;-61
2022/01/10 01:32:13;;;;;;;8.90;5.90;;;6.10;1.00;;;;;;5033095;28;20189;-60
2022/01/10 01:34:38;;;;;;;7.00;5.43;;;6.20;1.00;;;;;;5038308;28;20195;-62
2022/01/10 01:37:04;;;;;;;8.50;4.97;;;;;;;;;;5028787;28;20385;-60
2022/01/10 01:39:31;;;;;;;9.53;5.80;;;6.20;1.00;;;;;;5028235;28;20180;-59
2022/01/10 01:42:05;;;;;;;7.50;5.47;;;6.20;1.00;;;;;;5027020;28;20458;-61
2022/01/10 01:44:31;;;;;;;7.73;5.57;;;;;;;;;;5027484;28;20486;-61
2022/01/10 01:46:57;;;;;;;7.70;5.10;;;6.10;1.00;;;;;;5033780;28;20460;-61
2022/01/10 01:49:22;;;;;;;15.00;6.87;;;6.00;1.00;;;;;;5029346;28;20446;-61
2022/01/10 01:51:48;;;;;;;9.23;5.43;;;6.00;1.00;;;;;;5029277;28;20198;-62
2022/01/10 01:54:14;;;;;;;9.43;5.37;;;6.00;1.00;;;;;;5039395;28;20194;-62
2022/01/10 01:56:39;;;;;;;12.30;5.67;;;6.00;1.00;;;;;;5034797;28;20735;-63
2022/01/10 01:59:07;;;;;;;8.70;5.20;;;6.00;1.00;;;;;;5032623;28;20187;-62
2022/01/10 02:01:33;;;;;;;10.30;5.27;;;6.00;1.00;;;;;;5028119;28;20209;-62
2022/01/10 02:03:59;;;;;;;8.73;5.70;;;5.90;1.00;;;;;;5036910;28;20513;-62
2022/01/10 02:06:25;;;;;;;6.30;4.97;;;;;;;;;;5031093;28;20240;-62
2022/01/10 02:08:51;;;;;;;10.97;5.60;;;6.00;1.00;;;;;;5039055;28;20450;-61
2022/01/10 02:11:16;;;;;;;8.90;6.53;;;6.00;1.00;;;;;;5037142;28;20960;-61
2022/01/10 02:13:44;;;;;;;10.67;5.87;;;6.10;1.00;;;;;;5035638;28;20187;-62
2022/01/10 02:16:15;;;;;;;6.67;5.30;;;6.00;1.00;;;;;;5030927;28;20667;-62
2022/01/10 02:18:42;;;;;;;7.80;5.30;;;6.00;1.00;;;;;;5039195;28;20469;-62
2022/01/10 02:21:09;;;;;;;9.63;5.80;;;6.00;1.00;;;;;;5028065;28;20442;-62
2022/01/10 02:23:35;;;;;;;9.13;5.20;;;6.00;1.00;;;;;;5049748;28;20448;-61
2022/01/10 02:26:01;;;;;;;8.73;5.33;;;5.90;1.00;;;;;;5049363;28;20460;-61
2022/01/10 02:28:27;;;;;;;11.63;5.10;;;;;;;;;;5063004;28;20799;-61
2022/01/10 02:30:57;;;;;;;6.80;5.27;;;6.10;1.00;;;;;;5050802;28;20444;-61
2022/01/10 02:33:28;;;;;;;7.50;5.40;;;6.10;1.00;;;;;;5046963;28;20459;-61
2022/01/10 02:38:33;;;;;;;6.97;5.80;;;6.10;1.00;;;;;;5053440;28;20487;-61
2022/01/10 02:40:59;;;;;;;7.70;5.80;;;;;;;;;;5057744;28;20461;-61
2022/01/10 02:43:25;;;;;;;10.13;5.37;;;6.00;1.00;;;;;;5055808;28;20270;-62
2022/01/10 02:45:51;;;;;;;7.73;4.60;;;6.10;1.00;;;;;;5068125;28;20546;-60
2022/01/10 02:48:16;;;;;;;9.70;6.17;;;6.10;1.00;;;;;;5054797;28;20187;-61
2022/01/10 02:50:42;;;;;;;12.53;6.00;;;6.10;1.00;;;;;;5059856;28;20192;-61
2022/01/10 02:53:08;;;;;;;9.73;5.57;;;6.20;1.00;;;;;;5057712;28;20193;-60
2022/01/10 02:55:33;;;;;;;7.37;4.97;;;6.10;1.00;;;;;;5059358;28;20213;-60
2022/01/10 02:57:59;;;;;;;6.47;5.20;;;6.20;1.00;;;;;;5062374;28;20447;-59
2022/01/10 03:00:26;;;;;;;9.13;6.80;;;6.10;1.00;;;;;;5062147;28;20189;-59
2022/01/10 03:02:54;;;;;;;10.27;5.47;;;6.10;1.00;;;;;;5056908;28;20665;-60
2022/01/10 03:05:21;;;;;;;14.60;6.70;;;6.10;1.00;;;;;;5055390;28;20447;-61
2022/01/10 03:07:49;;;;;;;7.93;6.20;;;6.10;1.00;;;;;;5060993;28;20460;-61
2022/01/10 03:10:15;;;;;;;9.57;6.20;;;;;;;;;;5052557;28;20848;-60
2022/01/10 03:12:41;;;;;;;10.83;7.40;;;6.10;1.00;;;;;;5069677;28;20945;-60
2022/01/10 03:15:08;;;;;;;12.03;6.33;;;6.00;1.00;;;;;;5059909;28;20439;-61
2022/01/10 03:17:35;;;;;;;9.87;5.53;;;5.90;1.00;;;;;;5089711;28;20555;-62
2022/01/10 03:20:02;;;;;;;11.53;6.00;;;6.00;1.00;;;;;;5045187;28;20448;-61
2022/01/10 03:22:27;;;;;;;8.00;5.33;;;6.00;1.00;;;;;;5056762;28;20454;-62
2022/01/10 03:24:54;;;;;;;10.77;5.30;;;6.00;1.00;;;;;;5080397;28;20457;-62
2022/01/10 03:27:20;;;;;;;10.17;6.60;;;6.10;1.00;;;;;;5084958;28;20702;-62
2022/01/10 03:29:45;;;;;;;9.30;5.73;;;6.10;1.00;;;;;;5080474;28;20551;-61
2022/01/10 03:32:11;;;;;;;7.60;6.10;;;6.00;1.00;;;;;;5080712;28;20556;-61
2022/01/10 03:34:38;;;;;;;8.20;6.10;;;6.00;1.00;;;;;;5080153;28;20185;-61
2022/01/10 03:37:04;;;;;;;7.40;5.23;;;6.00;1.00;;;;;;5078922;28;20476;-61
2022/01/10 03:39:30;;;;;;;8.50;5.90;;;;;;;;;;5086444;28;20806;-61
2022/01/10 03:41:55;;;;;;;12.50;5.40;;;6.10;1.00;;;;;;5068757;28;20478;-62
2022/01/10 03:44:21;;;;;;;9.20;5.90;;;6.00;1.00;;;;;;5080681;28;20448;-62
2022/01/10 03:46:47;;;;;;;9.07;5.53;;;6.00;1.00;;;;;;5053956;28;20198;-62
2022/01/10 03:49:13;;;;;;;10.03;6.63;;;6.10;1.00;;;;;;5094552;28;20185;-62
2022/01/10 03:51:39;;;;;;;8.23;6.30;;;6.00;1.00;;;;;;5080204;28;20235;-61
2022/01/10 03:54:04;;;;;;;6.80;4.80;;;6.00;1.00;;;;;;5078689;28;21302;-60
2022/01/10 03:56:31;;;;;;;10.87;6.77;;;6.10;1.00;;;;;;5064861;28;20572;-61
2022/01/10 03:58:57;;;;;;;8.63;5.67;;;6.10;1.00;;;;;;5071555;28;20545;-62
2022/01/10 04:01:24;;;;;;;10.13;5.83;;;6.10;1.00;;;;;;5082266;28;20447;-61
2022/01/10 04:03:49;;;;;;;11.20;6.53;;;6.00;1.00;;;;;;5056410;28;20458;-61
2022/01/10 04:06:15;;;;;;;10.53;5.77;;;6.10;1.00;;;;;;5075780;28;20455;-61
2022/01/10 04:08:41;;;;;;;12.47;5.87;;;6.20;1.00;;;;;;5081897;28;20248;-61
2022/01/10 04:11:06;;;;;;;9.60;5.97;;;6.20;1.00;;;;;;5087174;28;20255;-62
2022/01/10 04:13:32;;;;;;;9.10;6.20;;;6.20;1.00;;;;;;5078282;28;20179;-62
2022/01/10 04:15:58;;;;;;;9.23;6.20;;;6.20;1.00;;;;;;5085058;28;20194;-61
2022/01/10 04:18:24;;;;;;;9.00;6.03;;;6.10;1.00;;;;;;5076084;28;20511;-60
2022/01/10 04:20:50;;;;;;;8.07;6.10;;;6.10;1.00;;;;;;5084943;28;20193;-60
2022/01/10 04:23:17;;;;;;;12.30;6.80;;;6.10;1.00;;;;;;5081825;28;20535;-60
2022/01/10 04:25:43;;;;;;;10.93;6.37;;;6.20;1.00;;;;;;5067825;28;20185;-61
2022/01/10 04:28:09;;;;;;;12.57;7.00;;;;;;;;;;5074551;28;20433;-62
2022/01/10 04:30:35;;;;;;;9.80;6.13;;;6.10;1.00;;;;;;5074994;28;20441;-61
2022/01/10 04:33:02;;;;;;;10.17;6.13;;;6.10;1.00;;;;;;5079332;28;20456;-61
2022/01/10 04:35:29;;;;;;;7.70;6.20;;;6.20;1.00;;;;;;5056934;28;20454;-62
2022/01/10 04:37:55;;;;;;;9.87;6.27;;;6.20;1.00;;;;;;5075455;28;20447;-61
2022/01/10 04:40:21;;;;;;;8.93;5.50;;;6.20;1.00;;;;;;5076867;28;20553;-61
2022/01/10 04:42:47;;;;;;;11.00;6.30;;;;;;;;;;5077499;28;20443;-61
2022/01/10 04:45:13;;;;;;;11.80;6.40;;;6.10;1.00;;;;;;5078252;28;20508;-61
2022/01/10 04:47:39;;;;;;;6.30;5.70;;;6.20;1.00;;;;;;5075761;28;20458;-62
2022/01/10 04:52:38;;;;;;;10.23;6.40;;;6.20;1.00;;;;;;5076884;28;20432;-60
2022/01/10 04:55:04;;;;;;;7.60;5.53;;;6.10;1.00;;;;;;5076047;28;20556;-62
2022/01/10 04:57:30;;;;;;;8.27;5.90;;;6.20;1.00;;;;;;5080784;28;20203;-60
2022/01/10 04:59:55;;;;;;;10.50;5.77;;;6.30;1.00;;;;;;5070898;28;21092;-61
2022/01/10 05:02:22;;;;;;;13.80;7.37;;;;;;;;;;5057913;28;20259;-60
2022/01/10 05:04:47;;;;;;;10.20;6.37;;;6.20;1.00;;;;;;5075194;28;20188;-63
2022/01/10 05:07:13;;;;;;;11.83;6.40;;;6.20;1.00;;;;;;5078638;28;20517;-61
2022/01/10 05:09:39;;;;;;;9.53;6.17;;;6.10;1.00;;;;;;5077670;28;20232;-60
2022/01/10 05:12:05;;;;;;;12.83;6.20;;;6.10;1.00;;;;;;5080077;28;20192;-59
2022/01/10 05:14:32;;;;;;;10.73;6.00;;;;;;;;;;5078554;28;20200;-61
2022/01/10 05:16:58;;;;;;;10.50;6.70;;;6.10;1.00;;;;;;5056303;28;20520;-60
2022/01/10 05:19:23;;;;;;;11.00;6.07;;;6.10;1.00;;;;;;5075196;28;20536;-60
2022/01/10 05:21:49;;;;;;;11.30;6.40;;;6.10;1.00;;;;;;5072531;28;21449;-59
2022/01/10 05:24:14;;;;;;;10.30;7.07;;;6.00;1.00;;;;;;5074809;28;20217;-59
2022/01/10 05:26:40;;;;;;;14.17;7.43;;;6.10;1.00;;;;;;5059846;28;20181;-62
2022/01/10 05:29:06;;;;;;;13.23;7.37;;;6.10;1.00;;;;;;5074365;28;20195;-61
2022/01/10 05:31:34;;;;;;;9.13;6.27;;;6.00;1.00;;;;;;5070060;28;20600;-61
2022/01/10 05:34:01;;;;;;;9.23;5.70;;;6.00;1.00;;;;;;5071440;28;20180;-62
2022/01/10 05:36:27;;;;;;;14.63;7.50;;;6.00;1.00;;;;;;5069836;28;20562;-62
2022/01/10 05:38:53;;;;;;;11.10;6.60;;;;;;;;;;5070450;28;21324;-62
2022/01/10 05:41:22;;;;;;;10.47;6.90;;;;;;;;;;5076407;28;20795;-61
2022/01/10 05:43:47;;;;;;;8.70;6.70;;;;;;;;;;5073452;28;20498;-61
2022/01/10 05:46:16;;;;;;;15.00;6.57;;;6.10;1.00;;;;;;5072805;28;20956;-62
2022/01/10 05:48:46;;;;;;;13.87;7.67;;;6.00;1.00;;;;;;5071792;28;20442;-61
2022/01/10 05:51:13;;;;;;;13.20;6.50;;;6.00;1.00;;;;;;5074326;28;21217;-61
2022/01/10 05:53:39;;;;;;;11.50;7.40;;;6.00;1.00;;;;;;5073621;28;20450;-62
2022/01/10 05:56:05;;;;;;;12.67;7.40;;;6.00;1.00;;;;;;5059811;28;20468;-62
2022/01/10 05:58:30;;;;;;;12.90;8.77;;;6.10;1.00;;;;;;5073230;28;20667;-62
2022/01/10 06:00:56;;;;;;;11.70;7.67;;;6.20;1.00;;;;;;5072546;28;20597;-61
2022/01/10 06:03:22;;;;;;;14.83;9.00;;;6.10;1.00;;;;;;5070186;28;20179;-61
2022/01/10 06:05:47;;;;;;;13.57;7.37;;;6.10;1.00;;;;;;5069521;28;20672;-61
2022/01/10 06:08:13;;;;;;;13.47;8.00;;;6.10;1.00;;;;;;5075159;28;20184;-62
2022/01/10 06:10:39;;;;;;;15.03;9.30;;;6.10;1.00;;;;;;5078326;28;20215;-63
2022/01/10 06:13:05;;;;;;;13.10;8.00;;;6.20;1.00;;;;;;5077741;28;20192;-63
2022/01/10 06:15:32;;;;;;;11.30;7.83;;;6.20;1.00;;;;;;5076284;28;20470;-61
2022/01/10 06:17:57;;;;;;;14.77;8.40;;;6.30;1.00;;;;;;5076516;28;21012;-62
2022/01/10 06:20:24;;;;;;;13.70;8.40;;;;;;;;;;5058480;28;20423;-62
2022/01/10 06:22:49;;;;;;;9.40;7.70;;;6.20;1.00;;;;;;5074528;28;20577;-62
2022/01/10 06:25:19;;;;;;;15.13;8.50;;;6.20;1.00;;;;;;5075649;28;20464;-63
2022/01/10 06:27:45;;;;;;;13.70;7.80;;;6.20;1.00;;;;;;5074070;28;20514;-62
2022/01/10 06:30:11;;;;;;;12.23;8.40;;;6.20;1.00;;;;;;5075306;28;20459;-61
2022/01/10 06:32:36;;;;;;;10.33;7.57;;;6.20;1.00;;;;;;5075917;28;20277;-62
2022/01/10 06:35:03;;;;;;;13.07;9.10;;;6.20;1.00;;;;;;5075811;28;20430;-62
2022/01/10 06:37:29;;;;;;;10.73;7.50;;;;;;;;;;5055838;28;20241;-62
2022/01/10 06:39:55;;;;;;;19.57;9.63;;;6.20;1.00;;;;;;5074632;28;20477;-62
2022/01/10 06:42:21;;;;;;;14.20;9.40;;;;;;;;;;5076485;28;20445;-61
2022/01/10 06:44:48;;;;;;;16.67;9.67;;;6.20;1.00;;;;;;5075725;28;20213;-63
2022/01/10 06:47:13;;;;;;;16.17;8.27;;;6.20;1.00;;;;;;5073697;28;20923;-62
2022/01/10 06:49:39;;;;;;;12.33;8.97;;;6.30;1.00;;;;;;5073161;28;20472;-62
2022/01/10 06:52:05;;;;;;;16.53;9.73;;;;;;;;;;5076942;28;20772;-62
2022/01/10 06:54:30;;;;;;;16.40;8.83;;;6.30;1.00;;;;;;5073003;28;20217;-62
2022/01/10 06:56:59;;;;;;;14.80;8.97;;;6.30;1.00;;;;;;5061086;28;20875;-62
2022/01/10 06:59:27;;;;;;;17.23;9.00;;;6.30;1.00;;;;;;5073252;28;20182;-61
2022/01/10 07:01:56;;;;;;;12.70;8.73;;;6.30;1.00;;;;;;5074435;28;20456;-62
2022/01/10 07:04:22;;;;;;;18.40;9.40;;;6.10;1.00;;;;;;5073541;28;20523;-62
2022/01/10 07:06:48;;;;;;;14.77;9.00;;;6.20;1.00;;;;;;5055268;28;20825;-62
2022/01/10 07:09:14;;;;;;;20.07;9.67;;;6.20;1.00;;;;;;5074381;28;20440;-62
2022/01/10 07:11:40;;;;;;;14.87;9.67;;;6.10;1.00;;;;;;5072631;28;20855;-62
2022/01/10 07:14:06;;;;;;;16.60;9.83;;;;;;;;;;5072757;28;20936;-62
2022/01/10 07:16:32;;;;;;;16.07;9.60;;;6.10;1.00;;;;;;5074201;28;20470;-62
2022/01/10 07:18:58;;;;;;;12.60;9.23;;;;;;;;;;5075178;28;20433;-62
2022/01/10 07:21:24;;;;;;;14.60;8.77;;;6.10;1.00;;;;;;5072413;28;20619;-62
2022/01/10 07:23:49;;;;;;;19.10;10.00;;;;;;;;;;5069901;28;20491;-62
2022/01/10 07:26:16;;;;;;;14.43;9.67;;;6.00;1.00;;;;;;5072056;28;20265;-62
2022/01/10 07:28:42;;;;;;;19.07;10.70;;;6.00;1.00;;;;;;5056841;28;20434;-62
2022/01/10 07:31:07;;;;;;;15.00;9.73;;;6.00;1.00;;;;;;5075084;28;20448;-62
2022/01/10 07:33:34;;;;;;;14.83;9.47;;;6.00;1.00;;;;;;5075388;28;20191;-62
2022/01/10 07:36:00;;;;;;;15.07;9.00;;;6.10;1.00;;;;;;5074929;28;20291;-63
2022/01/10 07:38:26;;;;;;;19.53;10.90;;;;;;;;;;5074664;28;20446;-62
2022/01/10 07:40:52;;;;;;;16.57;10.20;;;6.20;1.00;;;;;;5080857;28;20857;-62
2022/01/10 07:43:18;;;;;;;15.17;11.13;;;6.10;1.00;;;;;;5073520;28;20501;-63
2022/01/10 07:45:44;;;;;;;18.57;10.67;;;6.00;1.00;;;;;;5075467;28;20184;-62
2022/01/10 07:48:10;;;;;;;18.27;10.93;;;6.10;1.00;;;;;;5072721;28;20204;-63
2022/01/10 07:50:36;;;;;;;18.13;11.33;;;;;;;;;;5073338;28;20176;-62
2022/01/10 07:53:02;;;;;;;16.80;11.37;;;6.00;1.00;;;;;;5074950;28;20457;-63
2022/01/10 07:55:28;;;;;;;23.53;10.93;;;;;;;;;;5071619;28;20447;-63
2022/01/10 07:57:54;;;;;;;19.13;10.73;;;;;;;;;;5071617;28;20596;-63
2022/01/10 08:00:19;;;;;;;19.03;10.40;;;6.10;1.00;;;;;;5072741;28;20452;-63
2022/01/10 08:02:45;;;;;;;18.50;10.80;;;6.10;1.00;;;;;;5072409;28;20447;-63
2022/01/10 08:05:11;;;;;;;19.47;11.30;;;6.20;1.00;;;;;;5071846;28;20245;-62
2022/01/10 08:07:37;;;;;;;20.47;10.80;;;;;;;;;;5072128;28;20187;-62
2022/01/10 08:10:04;;;;;;;23.27;11.83;;;6.30;1.00;;;;;;5073445;28;20454;-62
2022/01/10 08:12:29;;;;;;;17.50;11.77;;;6.20;1.00;;;;;;5072813;28;20449;-62
2022/01/10 08:14:55;;;;;;;24.37;12.87;;;6.10;1.00;;;;;;5073373;28;20509;-62
2022/01/10 08:17:20;;;;;;;18.70;11.10;;;6.20;1.00;;;;;;5073688;28;20221;-61
2022/01/10 08:19:46;;;;;;;16.53;11.50;;;;;;;;;;5074592;28;20196;-62
2022/01/10 08:22:12;;;;;;;18.40;11.40;;;6.20;1.00;;;;;;5070765;28;20237;-62
2022/01/10 08:24:38;;;;;;;19.63;12.07;;;6.20;1.00;;;;;;5070904;28;20453;-62
2022/01/10 08:27:06;;;;;;;18.70;11.40;;;6.20;1.00;;;;;;5073667;28;20205;-62
2022/01/10 08:29:32;;;;;;;20.07;12.10;;;;;;;;;;5082734;28;20639;-62
2022/01/10 08:31:58;;;;;;;19.83;11.20;;;6.30;1.00;;;;;;5074863;28;20454;-62
2022/01/10 08:34:24;;;;;;;25.30;12.97;;;6.30;1.00;;;;;;5070669;28;20452;-61
2022/01/10 08:36:51;;;;;;;21.40;11.80;;;6.40;1.00;;;;;;5073464;28;20214;-61
2022/01/10 08:39:17;;;;;;;22.63;10.80;;;6.50;1.00;;;;;;5073549;28;20418;-62
2022/01/10 08:41:43;;;;;;;19.67;12.17;;;6.50;1.00;;;;;;5075155;28;20468;-63
2022/01/10 08:44:08;;;;;;;23.50;13.63;;;6.40;1.00;;;;;;5071404;28;20479;-61
2022/01/10 08:46:35;;;;;;;27.33;11.53;;;6.40;1.00;;;;;;5071481;28;20236;-62
2022/01/10 08:49:01;;;;;;;23.10;13.40;;;6.40;1.00;;;;;;5072545;28;20228;-63
2022/01/10 08:51:29;;;;;;;22.20;13.57;;;6.30;1.00;;;;;;5070921;28;20449;-61
2022/01/10 08:53:54;;;;;;;24.33;12.17;;;6.40;1.00;;;;;;5081340;28;20442;-62
2022/01/10 08:56:20;;;;;;;21.00;12.20;;;6.40;1.00;;;;;;5074361;28;21033;-61
2022/01/10 08:58:46;;;;;;;27.93;13.30;;;6.40;1.00;;;;;;5073671;28;20950;-63
2022/01/10 09:01:11;;;;;;;26.63;13.50;;;6.40;1.00;;;;;;5071031;28;20192;-62
2022/01/10 09:03:38;;;;;;;32.03;12.50;;;6.50;1.00;;;;;;5074793;28;20202;-62
2022/01/10 09:06:03;;;;;;;21.77;13.10;;;6.50;1.00;;;;;;5071760;28;20282;-62
2022/01/10 09:08:34;;;;;;;26.40;12.50;;;6.50;1.00;;;;;;5074157;28;20451;-60
2022/01/10 09:11:01;;;;;;;25.67;13.90;;;6.50;1.00;;;;;;5097697;28;20175;-62
2022/01/10 09:13:27;;;;;;;28.13;12.47;;;6.50;1.00;;;;;;5089835;28;20443;-62
2022/01/10 09:15:53;;;;;;;24.53;13.17;;;6.40;1.00;;;;;;5078766;28;20437;-62
2022/01/10 09:18:19;;;;;;;28.67;15.17;;;6.40;1.00;;;;;;5076104;28;20188;-63
2022/01/10 09:20:44;;;;;;;23.30;14.00;;;6.50;1.00;;;;;;5086043;28;20181;-64
2022/01/10 09:23:11;;;;;;;22.40;12.20;;;6.60;1.00;;;;;;5073809;28;20241;-62
2022/01/10 09:25:37;;;;;;;26.00;14.60;;;6.50;1.00;;;;;;5074733;28;20803;-62
2022/01/10 09:28:03;;;;;;;23.63;12.70;;;6.50;1.00;;;;;;5074534;28;20420;-63
2022/01/10 09:30:28;;;;;;;21.90;13.30;;;6.40;1.00;;;;;;5084884;28;20197;-62
2022/01/10 09:32:54;;;;;;;24.20;12.83;;;6.40;1.00;;;;;;5082742;28;20419;-61
2022/01/10 09:35:21;;;;;;;29.20;13.20;;;6.50;1.00;;;;;;5056994;28;20441;-63
2022/01/10 09:37:46;;;;;;;25.53;13.37;;;6.50;1.00;;;;;;5090524;28;20320;-62
2022/01/10 09:40:12;;;;;;;27.60;13.83;;;6.50;1.00;;;;;;5085101;28;20799;-63
2022/01/10 09:42:38;;;;;;;25.07;14.17;;;6.60;1.00;;;;;;5063820;28;20433;-62
2022/01/10 09:45:06;;;;;;;31.90;15.10;;;6.50;1.00;;;;;;5062418;28;20454;-63
2022/01/10 09:47:33;;;;;;;26.37;13.53;;;;;;;;;;5082531;28;20186;-63
2022/01/10 09:49:58;;;;;;;24.87;15.53;;;6.50;1.00;;;;;;5089664;28;20415;-63
2022/01/10 09:52:24;;;;;;;26.00;14.90;;;6.50;1.00;;;;;;5097465;28;20505;-62
2022/01/10 09:54:53;;;;;;;26.07;16.10;;;;;;;;;;5082240;28;20193;-63
2022/01/10 09:57:19;;;;;;;27.13;13.57;;;;;;;;;;5080779;28;20457;-63
2022/01/10 09:59:49;;;;;;;27.13;14.80;;;;;;;;;;5085889;28;20947;-64
2022/01/10 10:02:16;;;;;;;27.57;15.00;;;;;;;;;;5079894;28;20805;-64
2022/01/10 10:04:43;;;;;;;23.50;14.13;;;;;;;;;;5075882;28;20444;-63
2022/01/10 10:07:09;;;;;;;34.07;15.97;;;6.80;1.00;;;;;;5061120;28;20528;-64
2022/01/10 10:09:35;;;;;;;30.57;14.23;;;6.90;1.00;;;;;;5073133;28;20610;-62
2022/01/10 10:12:02;;;;;;;29.50;14.73;;;6.70;1.00;;;;;;5079703;28;20447;-63
2022/01/10 10:14:28;;;;;;;32.47;14.23;;;6.70;1.00;;;;;;5089294;28;20893;-63
2022/01/10 10:16:57;;;;;;;29.70;15.30;;;6.70;1.00;;;;;;5079238;28;20474;-63
2022/01/10 10:19:28;;;;;;;32.50;14.10;;;6.80;1.00;;;;;;5086058;28;20187;-63
2022/01/10 10:21:56;;;;;;;30.47;16.73;;;6.70;1.00;;;;;;5086860;28;20431;-63
2022/01/10 10:24:22;;;;;;;33.27;15.10;;;6.70;1.00;;;;;;5079535;28;20830;-61
2022/01/10 10:26:49;;;;;;;35.73;16.30;;;;;;;;;;5080585;28;20892;-62
2022/01/10 10:29:17;;;;;;;34.23;15.57;;;6.70;1.00;;;;;;5080482;28;20973;-62
2022/01/10 10:31:54;;;;;;;26.30;13.93;;;6.70;1.00;;;;;;5077268;28;20446;-62
2022/01/10 10:34:22;;;;;;;30.93;15.03;;;6.70;1.00;;;;;;5075716;28;20438;-62
2022/01/10 10:37:08;;;;;;;31.53;14.70;;;6.70;1.00;;;;;;5082235;28;20446;-62
2022/01/10 10:39:37;;;;;;;32.07;14.87;;;6.80;1.00;;;;;;5085074;28;20444;-62
2022/01/10 10:42:05;;;;;;;35.10;14.87;;;7.00;1.00;;;;;;5082696;28;20445;-62
2022/01/10 10:44:31;;;;;;;31.67;13.93;;;7.00;1.00;;;;;;5082991;28;20907;-63
2022/01/10 10:46:58;;;;;;;26.30;13.67;;;7.00;1.00;;;;;;5059884;28;20950;-63
2022/01/10 10:49:31;;;;;;;25.20;14.63;;;7.00;1.00;;;;;;5078917;28;20592;-63
2022/01/10 10:51:59;;;;;;;26.60;12.77;;;6.90;1.00;;;;;;5084522;28;20771;-62
2022/01/10 10:54:25;;;;;;;29.70;15.13;;;6.90;1.00;;;;;;5086123;28;20453;-63
2022/01/10 10:56:50;;;;;;;26.17;13.03;;;6.90;1.00;;;;;;5062224;28;20463;-62
2022/01/10 10:59:17;;;;;;;31.57;14.03;;;;;;;;;;5087666;28;20193;-62
2022/01/10 11:01:42;;;;;;;31.73;14.63;;;7.00;1.00;;;;;;5089733;28;20207;-62
2022/01/10 11:04:10;;;;;;;26.37;14.07;;;7.10;1.00;;;;;;5098586;28;20448;-64
2022/01/10 11:06:37;;;;;;;24.97;14.73;;;7.20;1.00;;;;;;5092258;28;20530;-63
2022/01/10 11:09:09;;;;;;;30.80;13.27;;;7.10;1.00;;;;;;5082229;28;20444;-63
2022/01/10 11:11:35;;;;;;;27.43;13.80;;;7.00;1.00;;;;;;5086920;28;20439;-63
2022/01/10 11:14:01;;;;;;;27.03;14.30;;;;;;;;;;5088144;28;20929;-63
2022/01/10 11:16:28;;;;;;;26.33;13.67;;;7.00;1.00;;;;;;5081761;28;20865;-62
2022/01/10 11:18:55;;;;;;;25.63;13.20;;;7.00;1.00;;;;;;5067221;28;20497;-62
2022/01/10 11:21:23;;;;;;;23.07;12.63;;;7.00;1.00;;;;;;5081260;28;20526;-62
2022/01/10 11:23:50;;;;;;;19.70;12.43;;;7.00;1.00;;;;;;5076035;28;20470;-62
2022/01/10 11:26:17;;;;;;;26.60;13.07;;;7.00;1.00;;;;;;5087581;28;20810;-63
2022/01/10 11:28:55;;;;;;;23.93;14.07;;;7.10;1.00;;;;;;5059705;28;20448;-64
2022/01/10 11:31:26;;;;;;;28.53;13.23;;;7.10;1.00;;;;;;5065737;28;20466;-63
2022/01/10 11:33:54;;;;;;;19.20;13.27;;;7.20;1.00;;;;;;5080156;28;20542;-63
2022/01/10 11:36:23;;;;;;;21.50;12.50;;;7.20;1.00;;;;;;5087059;28;20553;-64
2022/01/10 11:39:00;;;;;;;16.90;11.27;;;7.20;1.00;;;;;;5086356;28;20417;-62
2022/01/10 11:41:27;;;;;;;17.70;12.60;;;7.20;1.00;;;;;;5087629;28;20473;-62
2022/01/10 11:43:57;;;;;;;22.63;12.83;;;7.20;1.00;;;;;;5082647;28;20441;-62
2022/01/10 11:46:36;;;;;;;22.17;12.10;;;7.20;1.00;;;;;;5060726;28;20459;-63
2022/01/10 11:49:09;;;;;;;18.53;11.63;;;7.20;1.00;;;;;;5084728;28;20950;-64
2022/01/10 11:51:36;;;;;;;15.03;10.43;;;7.30;1.00;;;;;;5058644;28;20524;-63
2022/01/10 11:54:23;;;;;;;19.63;10.83;;;7.50;1.00;;;;;;5082989;28;20476;-62
2022/01/10 11:56:51;;;;;;;13.90;9.10;;;7.50;1.00;;;;;;5079832;28;20861;-63
2022/01/10 11:59:19;;;;;;;15.33;7.90;;;7.60;1.00;;;;;;5083395;28;20933;-62
2022/01/10 12:01:57;;;;;;;11.50;6.80;;;7.50;1.00;;;;;;5087322;28;20963;-63
2022/01/10 12:04:25;;;;;;;17.33;6.73;;;7.40;1.00;;;;;;5075498;28;20915;-63
2022/01/10 12:06:51;;;;;;;12.60;6.70;;;7.40;1.00;;;;;;5089396;28;20449;-63
2022/01/10 12:09:17;;;;;;;10.00;7.23;;;7.60;1.00;;;;;;5087149;28;20432;-64
2022/01/10 12:11:46;;;;;;;10.90;6.57;;;7.60;1.00;;;;;;5058655;28;20454;-64
2022/01/10 12:14:12;;;;;;;10.30;6.93;;;7.70;1.00;;;;;;5086684;28;20472;-64
2022/01/10 12:16:39;;;;;;;16.70;6.67;;;7.80;1.00;;;;;;5055991;28;20471;-63
2022/01/10 12:19:05;;;;;;;9.90;6.20;;;7.80;1.00;;;;;;5083101;28;20435;-62
2022/01/10 12:21:32;;;;;;;9.97;5.53;;;7.80;1.00;;;;;;5083618;28;20443;-64
2022/01/10 12:23:58;;;;;;;12.83;6.10;;;7.70;1.00;;;;;;5079447;28;20468;-63
2022/01/10 12:26:25;;;;;;;9.47;5.33;;;7.70;1.00;;;;;;5079289;28;20410;-63
2022/01/10 12:28:54;;;;;;;11.40;6.43;;;7.70;1.00;;;;;;5079645;28;20437;-63
2022/01/10 12:31:21;;;;;;;8.97;5.77;;;7.80;1.00;;;;;;5074644;28;20494;-64
2022/01/10 12:33:50;;;;;;;12.97;6.30;;;7.70;1.00;;;;;;5090755;28;20514;-63
2022/01/10 12:36:16;;;;;;;13.80;6.07;;;7.70;1.00;;;;;;5082484;28;20620;-63
2022/01/10 12:38:42;;;;;;;10.53;6.20;;;7.80;1.00;;;;;;5085937;28;20407;-63
2022/01/10 12:41:09;;;;;;;13.97;6.37;;;7.80;1.00;;;;;;5098587;28;20826;-63
2022/01/10 12:43:34;;;;;;;10.57;6.20;;;7.70;1.00;;;;;;5084081;28;20544;-63
2022/01/10 12:46:00;;;;;;;11.17;6.00;;;7.80;1.00;;;;;;5087573;28;20480;-64
2022/01/10 12:48:26;;;;;;;9.00;6.37;;;7.80;1.00;;;;;;5080271;28;20190;-62
2022/01/10 12:50:54;;;;;;;10.83;6.37;;;;;;;;;;5084189;28;20178;-63
2022/01/10 12:53:20;;;;;;;9.00;5.30;;;7.90;1.00;;;;;;5058900;28;20191;-63
2022/01/10 12:55:46;;;;;;;12.73;5.60;;;8.10;1.00;;;;;;5080778;28;20442;-63
2022/01/10 12:58:11;;;;;;;10.30;5.30;;;8.00;1.00;;;;;;5079184;28;20443;-62
2022/01/10 13:00:37;;;;;;;10.53;5.63;;;8.00;1.00;;;;;;5092777;28;20439;-62
2022/01/10 13:03:04;;;;;;;9.43;5.90;;;7.90;1.00;;;;;;5085819;28;20174;-63
2022/01/10 13:05:32;;;;;;;10.33;6.03;;;8.00;1.00;;;;;;5091588;28;20451;-63
2022/01/10 13:07:58;;;;;;;10.10;5.87;;;8.00;1.00;;;;;;5090374;28;20431;-62
2022/01/10 13:10:32;;;;;;;12.70;6.20;;;7.90;1.00;;;;;;5076944;28;20561;-62
2022/01/10 13:13:01;;;;;;;14.87;6.37;;;7.90;1.00;;;;;;5073906;28;20490;-62